createdAt,value
2018-12-31T00:02:34.928Z,21.63
2018-12-31T00:05:03.978Z,19.23
2018-12-31T00:07:32.882Z,18.80
2018-12-31T00:10:01.794Z,16.97
2018-12-31T00:12:30.675Z,18.50
2018-12-31T00:15:00.221Z,17.70
2018-12-31T00:17:29.612Z,19.53
2018-12-31T00:19:58.572Z,18.20
2018-12-31T00:22:27.570Z,20.33
2018-12-31T00:24:56.885Z,19.73
2018-12-31T00:27:26.180Z,19.23
2018-12-31T00:29:55.725Z,17.07
2018-12-31T00:32:25.100Z,17.57
2018-12-31T00:34:54.068Z,17.07
2018-12-31T00:37:23.371Z,16.73
2018-12-31T00:39:52.363Z,18.47
2018-12-31T00:42:21.819Z,18.10
2018-12-31T00:44:50.934Z,16.53
2018-12-31T00:47:20.276Z,22.23
2018-12-31T00:49:49.888Z,18.57
2018-12-31T00:52:20.659Z,16.40
2018-12-31T00:54:49.674Z,19.63
2018-12-31T00:57:18.942Z,16.30
2018-12-31T00:59:47.883Z,17.53
2018-12-31T01:02:16.936Z,14.80
2018-12-31T01:04:46.809Z,15.83
2018-12-31T01:07:16.057Z,16.33
2018-12-31T01:09:45.054Z,16.87
2018-12-31T01:12:14.123Z,17.57
2018-12-31T01:14:43.445Z,15.90
2018-12-31T01:17:12.637Z,17.37
2018-12-31T01:19:41.825Z,16.47
2018-12-31T01:22:11.281Z,14.67
2018-12-31T01:24:40.842Z,15.23
2018-12-31T01:27:09.834Z,15.43
2018-12-31T01:29:38.732Z,15.63
2018-12-31T01:32:07.682Z,16.17
2018-12-31T01:34:36.602Z,14.23
2018-12-31T01:37:05.870Z,14.63
2018-12-31T01:39:35.167Z,14.50
2018-12-31T01:42:04.537Z,17.10
2018-12-31T01:44:33.855Z,18.33
2018-12-31T01:47:03.476Z,15.87
2018-12-31T01:49:32.438Z,14.87
2018-12-31T01:52:01.671Z,16.33
2018-12-31T01:54:30.668Z,15.77
2018-12-31T01:56:59.605Z,15.57
2018-12-31T01:59:28.500Z,14.70
2018-12-31T02:01:57.490Z,15.30
2018-12-31T02:04:26.449Z,15.10
2018-12-31T02:06:55.692Z,15.60
2018-12-31T02:09:24.648Z,18.23
2018-12-31T02:11:54.056Z,16.13
2018-12-31T02:14:23.541Z,15.07
2018-12-31T02:16:52.849Z,15.83
2018-12-31T02:19:21.919Z,13.00
2018-12-31T02:21:50.940Z,14.70
2018-12-31T02:24:19.990Z,13.83
2018-12-31T02:26:49.300Z,12.67
2018-12-31T02:29:21.935Z,13.80
2018-12-31T02:31:50.958Z,12.23
2018-12-31T02:34:19.984Z,12.07
2018-12-31T02:36:49.376Z,11.73
2018-12-31T02:39:18.359Z,12.33
2018-12-31T02:41:47.419Z,10.67
2018-12-31T02:44:16.415Z,10.90
2018-12-31T02:46:45.362Z,11.33
2018-12-31T02:49:14.356Z,11.27
2018-12-31T02:51:43.225Z,11.17
2018-12-31T02:54:12.515Z,11.27
2018-12-31T02:56:41.870Z,10.80
2018-12-31T02:59:10.861Z,8.40
2018-12-31T03:01:39.731Z,8.50
2018-12-31T03:04:09.716Z,7.97
2018-12-31T03:06:38.796Z,7.60
2018-12-31T03:09:08.695Z,8.70
2018-12-31T03:11:37.957Z,7.67
2018-12-31T03:14:06.928Z,7.30
2018-12-31T03:16:35.900Z,7.20
2018-12-31T03:19:04.951Z,7.10
2018-12-31T03:21:33.974Z,8.13
2018-12-31T03:24:03.219Z,6.60
2018-12-31T03:26:32.231Z,7.00
2018-12-31T03:29:01.410Z,7.20
2018-12-31T03:31:30.797Z,6.20
2018-12-31T03:34:00.167Z,7.40
2018-12-31T03:36:29.125Z,7.53
2018-12-31T03:38:58.489Z,7.57
2018-12-31T03:41:27.786Z,9.43
2018-12-31T03:43:56.999Z,10.13
2018-12-31T03:46:26.390Z,7.90
2018-12-31T03:48:56.003Z,9.97
2018-12-31T03:51:25.167Z,8.93
2018-12-31T03:53:54.172Z,9.13
2018-12-31T03:56:23.179Z,10.03
2018-12-31T03:58:52.619Z,11.17
2018-12-31T04:01:21.992Z,10.73
2018-12-31T04:03:50.974Z,11.70
2018-12-31T04:06:20.130Z,13.20
2018-12-31T04:08:49.407Z,12.47
2018-12-31T04:11:18.856Z,11.47
2018-12-31T04:13:47.812Z,12.33
2018-12-31T04:16:16.776Z,9.80
2018-12-31T04:18:45.737Z,13.77
2018-12-31T04:21:15.021Z,16.83
2018-12-31T04:23:44.062Z,13.13
2018-12-31T04:26:13.002Z,14.63
2018-12-31T04:28:42.397Z,11.87
2018-12-31T04:31:11.616Z,14.13
2018-12-31T04:33:40.890Z,14.23
2018-12-31T04:36:09.996Z,13.80
2018-12-31T04:38:38.895Z,15.83
2018-12-31T04:41:08.540Z,16.97
2018-12-31T04:43:37.513Z,16.73
2018-12-31T04:46:07.167Z,20.10
2018-12-31T04:48:36.747Z,18.47
2018-12-31T04:51:06.559Z,18.20
2018-12-31T04:53:35.878Z,20.57
2018-12-31T04:56:05.161Z,17.83
2018-12-31T04:58:34.145Z,19.87
2018-12-31T05:01:03.469Z,19.23
2018-12-31T05:03:32.457Z,18.00
2018-12-31T05:06:01.807Z,19.53
2018-12-31T05:08:31.865Z,19.97
2018-12-31T05:11:00.856Z,22.30
2018-12-31T05:13:29.823Z,24.23
2018-12-31T05:15:59.070Z,25.37
2018-12-31T05:18:28.665Z,26.40
2018-12-31T05:20:57.697Z,26.73
2018-12-31T05:23:27.083Z,22.70
2018-12-31T05:25:56.249Z,24.10
2018-12-31T05:28:25.899Z,22.27
2018-12-31T05:30:54.883Z,24.63
2018-12-31T05:33:23.825Z,22.90
2018-12-31T05:35:52.850Z,26.90
2018-12-31T05:38:21.779Z,24.10
2018-12-31T05:40:51.248Z,23.37
2018-12-31T05:43:20.887Z,23.40
2018-12-31T05:45:49.782Z,24.97
2018-12-31T05:48:19.048Z,24.87
2018-12-31T05:50:48.012Z,21.77
2018-12-31T05:53:17.213Z,21.17
2018-12-31T05:55:46.179Z,22.43
2018-12-31T05:58:15.503Z,25.53
2018-12-31T06:00:44.728Z,23.17
2018-12-31T06:03:13.641Z,22.53
2018-12-31T06:05:42.615Z,23.33
2018-12-31T06:08:11.537Z,25.37
2018-12-31T06:10:40.431Z,27.40
2018-12-31T06:13:09.388Z,27.60
2018-12-31T06:15:38.776Z,31.27
2018-12-31T06:18:07.689Z,24.93
2018-12-31T06:20:36.898Z,26.10
2018-12-31T06:23:06.192Z,24.63
2018-12-31T06:25:35.229Z,24.97
2018-12-31T06:28:04.321Z,23.83
2018-12-31T06:30:33.350Z,26.47
2018-12-31T06:33:02.451Z,24.40
2018-12-31T06:35:31.610Z,22.90
2018-12-31T06:38:00.668Z,24.20
2018-12-31T06:40:29.628Z,28.60
2018-12-31T06:42:58.569Z,28.13
2018-12-31T06:45:28.145Z,22.90
2018-12-31T06:47:58.194Z,25.70
2018-12-31T06:50:27.253Z,29.57
2018-12-31T06:52:57.635Z,28.90
2018-12-31T06:55:26.696Z,24.33
2018-12-31T06:58:01.564Z,29.53
2018-12-31T07:00:30.606Z,26.77
2018-12-31T07:02:59.920Z,26.60
2018-12-31T07:05:28.909Z,26.20
2018-12-31T07:07:58.276Z,29.53
2018-12-31T07:10:28.312Z,28.80
2018-12-31T07:12:58.014Z,30.73
2018-12-31T07:15:27.709Z,29.70
2018-12-31T07:17:56.749Z,30.20
2018-12-31T07:20:29.102Z,31.80
2018-12-31T07:22:58.101Z,32.60
2018-12-31T07:25:27.059Z,32.87
2018-12-31T07:27:56.407Z,32.07
2018-12-31T07:30:25.373Z,43.00
2018-12-31T07:32:54.390Z,38.60
2018-12-31T07:35:23.451Z,43.50
2018-12-31T07:37:52.861Z,45.60
2018-12-31T07:40:21.859Z,38.53
2018-12-31T07:42:50.835Z,41.53
2018-12-31T07:45:19.931Z,41.50
2018-12-31T07:47:49.641Z,44.37
2018-12-31T07:50:19.082Z,99.67
2018-12-31T07:52:48.044Z,91.37
2018-12-31T07:55:16.972Z,37.23
2018-12-31T07:57:46.049Z,42.57
2018-12-31T08:00:15.412Z,45.57
2018-12-31T08:02:44.846Z,48.47
2018-12-31T08:05:13.835Z,47.77
2018-12-31T08:07:43.160Z,49.80
2018-12-31T08:10:12.383Z,46.40
2018-12-31T08:12:41.437Z,49.80
2018-12-31T08:15:11.134Z,52.67
2018-12-31T08:17:40.025Z,53.97
2018-12-31T08:20:09.478Z,54.27
2018-12-31T08:22:38.948Z,55.37
2018-12-31T08:25:07.944Z,53.37
2018-12-31T08:27:37.012Z,50.97
2018-12-31T08:30:06.347Z,55.73
2018-12-31T08:32:35.396Z,54.10
2018-12-31T08:35:04.497Z,46.37
2018-12-31T08:37:33.838Z,50.30
2018-12-31T08:40:02.722Z,45.30
2018-12-31T08:42:32.152Z,43.73
2018-12-31T08:45:01.605Z,50.30
2018-12-31T08:47:30.850Z,52.13
2018-12-31T08:50:02.832Z,45.33
2018-12-31T08:52:31.240Z,46.87
2018-12-31T08:55:00.500Z,48.87
2018-12-31T08:57:29.374Z,45.30
2018-12-31T08:59:58.719Z,43.97
2018-12-31T09:02:27.696Z,45.67
2018-12-31T09:04:56.684Z,50.13
2018-12-31T09:07:26.155Z,46.33
2018-12-31T09:09:55.466Z,46.80
2018-12-31T09:12:24.485Z,41.33
2018-12-31T09:14:53.466Z,49.10
2018-12-31T09:17:22.415Z,47.27
2018-12-31T09:19:51.724Z,52.00
2018-12-31T09:22:21.141Z,55.03
2018-12-31T09:24:50.236Z,46.77
2018-12-31T09:27:19.497Z,53.47
2018-12-31T09:29:48.804Z,48.43
2018-12-31T09:32:18.142Z,46.63
2018-12-31T09:34:47.216Z,49.07
2018-12-31T09:37:16.162Z,46.90
2018-12-31T09:39:45.461Z,45.13
2018-12-31T09:42:14.698Z,50.63
2018-12-31T09:44:43.977Z,46.13
2018-12-31T09:47:13.003Z,53.33
2018-12-31T09:49:42.362Z,55.27
2018-12-31T09:52:11.624Z,51.37
2018-12-31T09:54:40.986Z,48.77
2018-12-31T09:57:10.102Z,43.93
2018-12-31T09:59:39.155Z,49.93
2018-12-31T10:02:08.415Z,53.70
2018-12-31T10:04:37.404Z,51.30
2018-12-31T10:07:06.375Z,44.00
2018-12-31T10:09:35.557Z,46.97
2018-12-31T10:12:04.852Z,42.17
2018-12-31T10:14:33.928Z,50.07
2018-12-31T10:17:02.973Z,50.43
2018-12-31T10:19:32.530Z,42.27
2018-12-31T10:22:01.869Z,48.17
2018-12-31T10:24:30.813Z,46.00
2018-12-31T10:26:59.874Z,52.33
2018-12-31T10:29:35.783Z,45.63
2018-12-31T10:32:00.312Z,55.30
2018-12-31T10:34:29.807Z,43.67
2018-12-31T10:36:59.299Z,46.67
2018-12-31T10:39:28.385Z,54.20
2018-12-31T10:41:57.875Z,47.87
2018-12-31T10:44:26.928Z,59.23
2018-12-31T10:46:55.915Z,52.63
2018-12-31T10:49:24.854Z,53.20
2018-12-31T10:51:54.276Z,48.20
2018-12-31T10:54:23.256Z,48.80
2018-12-31T10:56:52.339Z,53.93
2018-12-31T10:59:21.385Z,44.23
2018-12-31T11:01:50.445Z,53.07
2018-12-31T11:04:19.502Z,48.43
2018-12-31T11:06:48.490Z,53.90
2018-12-31T11:09:17.729Z,50.00
2018-12-31T11:11:46.712Z,51.33
2018-12-31T11:14:16.145Z,56.33
2018-12-31T11:16:45.442Z,45.97
2018-12-31T11:19:14.365Z,52.53
2018-12-31T11:21:43.759Z,53.57
2018-12-31T11:24:12.896Z,54.57
2018-12-31T11:26:41.985Z,50.10
2018-12-31T11:29:11.236Z,48.47
2018-12-31T11:31:40.463Z,54.23
2018-12-31T11:34:09.406Z,47.37
2018-12-31T11:36:38.761Z,49.83
2018-12-31T11:39:08.470Z,46.60
2018-12-31T11:41:37.497Z,49.30
2018-12-31T11:44:06.507Z,43.73
2018-12-31T11:46:35.910Z,51.03
2018-12-31T11:49:05.364Z,46.93
2018-12-31T11:51:34.429Z,49.07
2018-12-31T11:54:03.694Z,52.20
2018-12-31T11:56:33.071Z,51.90
2018-12-31T11:59:02.398Z,47.93
2018-12-31T12:01:31.823Z,41.77
2018-12-31T12:04:01.147Z,54.67
2018-12-31T12:06:30.111Z,45.33
2018-12-31T12:08:59.437Z,40.43
2018-12-31T12:11:28.793Z,52.77
2018-12-31T12:13:58.201Z,53.37
2018-12-31T12:16:27.318Z,47.03
2018-12-31T12:18:56.752Z,51.90
2018-12-31T12:21:26.734Z,52.40
2018-12-31T12:23:55.669Z,55.40
2018-12-31T12:26:24.621Z,59.90
2018-12-31T12:28:53.755Z,55.10
2018-12-31T12:31:22.786Z,45.47
2018-12-31T12:33:51.801Z,47.07
2018-12-31T12:36:20.922Z,44.57
2018-12-31T12:38:50.748Z,49.17
2018-12-31T12:41:19.762Z,56.23
2018-12-31T12:43:48.944Z,48.57
2018-12-31T12:46:17.937Z,48.23
2018-12-31T12:48:46.823Z,51.73
2018-12-31T12:51:15.862Z,44.43
2018-12-31T12:53:44.821Z,47.03
2018-12-31T12:56:14.207Z,44.00
2018-12-31T12:58:43.452Z,44.60
2018-12-31T13:01:12.457Z,47.00
2018-12-31T13:03:42.167Z,50.50
2018-12-31T13:06:11.206Z,41.57
2018-12-31T13:08:40.512Z,51.50
2018-12-31T13:11:09.517Z,45.13
2018-12-31T13:13:38.487Z,41.03
2018-12-31T13:16:07.935Z,38.80
2018-12-31T13:18:37.344Z,53.67
2018-12-31T13:21:07.059Z,42.13
2018-12-31T13:23:36.110Z,35.37
2018-12-31T13:26:05.095Z,42.97
2018-12-31T13:28:34.286Z,42.53
2018-12-31T13:31:03.369Z,39.63
2018-12-31T13:33:33.161Z,39.97
2018-12-31T13:36:02.097Z,36.40
2018-12-31T13:38:31.113Z,41.50
2018-12-31T13:41:00.716Z,39.57
2018-12-31T13:43:30.172Z,37.33
2018-12-31T13:45:59.950Z,41.47
2018-12-31T13:48:28.932Z,40.60
2018-12-31T13:50:57.948Z,40.63
2018-12-31T13:53:27.353Z,43.50
2018-12-31T13:55:56.316Z,35.10
2018-12-31T13:58:26.002Z,36.27
2018-12-31T14:00:54.980Z,33.00
2018-12-31T14:03:23.954Z,39.17
2018-12-31T14:05:52.889Z,42.77
2018-12-31T14:08:22.142Z,36.10
2018-12-31T14:10:51.300Z,35.87
2018-12-31T14:13:20.296Z,41.37
2018-12-31T14:15:49.335Z,40.40
2018-12-31T14:18:18.489Z,36.93
2018-12-31T14:20:47.901Z,47.37
2018-12-31T14:23:16.990Z,37.10
2018-12-31T14:25:46.440Z,35.70
2018-12-31T14:28:15.414Z,38.60
2018-12-31T14:30:44.718Z,39.93
2018-12-31T14:33:13.719Z,50.37
2018-12-31T14:35:45.977Z,38.70
2018-12-31T14:38:14.234Z,33.37
2018-12-31T14:40:43.221Z,34.50
2018-12-31T14:43:12.242Z,35.13
2018-12-31T14:45:41.993Z,29.83
2018-12-31T14:48:11.232Z,34.53
2018-12-31T14:50:40.113Z,40.43
2018-12-31T14:53:09.730Z,34.10
2018-12-31T14:55:38.994Z,42.07
2018-12-31T14:58:08.138Z,35.17
2018-12-31T15:00:37.546Z,35.03
2018-12-31T15:03:06.691Z,35.70
2018-12-31T15:05:36.089Z,33.43
2018-12-31T15:08:05.080Z,40.17
2018-12-31T15:10:34.437Z,37.60
2018-12-31T15:13:03.725Z,40.43
2018-12-31T15:15:33.220Z,34.77
2018-12-31T15:18:02.141Z,29.83
2018-12-31T15:20:31.248Z,35.73
2018-12-31T15:23:01.120Z,34.47
2018-12-31T15:25:30.160Z,40.23
2018-12-31T15:27:59.411Z,31.00
2018-12-31T15:30:28.718Z,40.00
2018-12-31T15:32:57.702Z,38.83
2018-12-31T15:35:27.128Z,40.60
2018-12-31T15:37:56.450Z,45.33
2018-12-31T15:40:25.536Z,38.10
2018-12-31T15:42:54.491Z,41.70
2018-12-31T15:45:23.561Z,46.87
2018-12-31T15:47:52.990Z,43.40
2018-12-31T15:50:22.811Z,44.93
2018-12-31T15:52:52.535Z,38.43
2018-12-31T15:55:21.758Z,47.67
2018-12-31T15:57:50.743Z,45.33
2018-12-31T16:00:20.201Z,42.10
2018-12-31T16:02:49.606Z,44.67
2018-12-31T16:05:18.956Z,36.37
2018-12-31T16:07:48.686Z,43.67
2018-12-31T16:10:17.721Z,39.60
2018-12-31T16:12:47.296Z,45.13
2018-12-31T16:15:16.717Z,39.90
2018-12-31T16:17:46.402Z,43.23
2018-12-31T16:20:15.419Z,41.57
2018-12-31T16:22:44.493Z,40.40
2018-12-31T16:25:13.558Z,40.70
2018-12-31T16:27:42.493Z,43.90
2018-12-31T16:30:11.400Z,43.30
2018-12-31T16:32:40.885Z,39.70
2018-12-31T16:35:10.001Z,42.17
2018-12-31T16:37:38.984Z,45.90
2018-12-31T16:40:08.290Z,44.10
2018-12-31T16:42:37.362Z,47.43
2018-12-31T16:45:07.394Z,46.07
2018-12-31T16:47:36.883Z,43.83
2018-12-31T16:50:06.872Z,49.40
2018-12-31T16:52:35.889Z,43.17
2018-12-31T16:55:05.085Z,46.47
2018-12-31T16:57:34.119Z,48.87
2018-12-31T17:00:03.217Z,47.73
2018-12-31T17:02:32.104Z,45.10
2018-12-31T17:05:01.044Z,45.30
2018-12-31T17:07:30.095Z,51.43
2018-12-31T17:09:59.488Z,47.47
2018-12-31T17:12:28.595Z,39.80
2018-12-31T17:14:58.342Z,56.40
2018-12-31T17:17:27.792Z,40.17
2018-12-31T17:19:56.741Z,58.73
2018-12-31T17:22:26.410Z,48.90
2018-12-31T17:24:55.388Z,51.13
2018-12-31T17:27:24.835Z,50.27
2018-12-31T17:29:53.807Z,60.43
2018-12-31T17:32:23.220Z,62.50
2018-12-31T17:34:53.021Z,60.83
2018-12-31T17:37:22.021Z,50.97
2018-12-31T17:39:51.758Z,53.47
2018-12-31T17:42:20.756Z,44.00
2018-12-31T17:44:49.701Z,46.73
2018-12-31T17:47:18.782Z,48.33
2018-12-31T17:49:48.198Z,52.37
2018-12-31T17:52:17.775Z,47.13
2018-12-31T17:54:46.766Z,47.67
2018-12-31T17:57:15.946Z,50.00
2018-12-31T17:59:45.034Z,48.73
2018-12-31T18:02:14.025Z,42.47
2018-12-31T18:04:43.791Z,57.40
2018-12-31T18:07:13.168Z,55.23
2018-12-31T18:09:42.338Z,45.20
2018-12-31T18:12:11.552Z,49.30
2018-12-31T18:14:41.092Z,51.33
2018-12-31T18:17:10.640Z,52.43
2018-12-31T18:19:39.638Z,55.20
2018-12-31T18:22:08.733Z,54.50
2018-12-31T18:24:37.957Z,54.33
2018-12-31T18:27:06.955Z,55.03
2018-12-31T18:29:36.247Z,49.53
2018-12-31T18:32:05.294Z,51.77
2018-12-31T18:34:34.593Z,54.57
2018-12-31T18:37:03.642Z,49.80
2018-12-31T18:39:33.018Z,53.27
2018-12-31T18:42:02.171Z,48.63
2018-12-31T18:44:31.608Z,45.33
2018-12-31T18:47:01.093Z,45.67
2018-12-31T18:49:30.568Z,52.50
2018-12-31T18:52:00.234Z,51.23
2018-12-31T18:54:29.592Z,51.30
2018-12-31T18:56:58.893Z,53.33
2018-12-31T18:59:28.273Z,56.87
2018-12-31T19:01:57.703Z,53.97
2018-12-31T19:04:26.633Z,55.93
2018-12-31T19:06:56.146Z,50.83
2018-12-31T19:09:25.090Z,49.50
2018-12-31T19:11:54.786Z,58.07
2018-12-31T19:14:23.878Z,47.47
2018-12-31T19:16:53.245Z,59.93
2018-12-31T19:19:22.631Z,50.53
2018-12-31T19:21:53.023Z,56.70
2018-12-31T19:24:21.910Z,50.47
2018-12-31T19:26:50.843Z,50.10
2018-12-31T19:29:19.819Z,47.63
2018-12-31T19:31:49.586Z,60.43
2018-12-31T19:34:19.236Z,54.07
2018-12-31T19:36:48.620Z,52.33
2018-12-31T19:39:17.626Z,56.27
2018-12-31T19:41:46.694Z,166.73
2018-12-31T19:44:16.109Z,64.93
2018-12-31T19:46:45.497Z,59.43
2018-12-31T19:49:14.476Z,56.43
2018-12-31T19:51:43.521Z,58.47
2018-12-31T19:54:12.513Z,58.53
2018-12-31T19:56:42.118Z,63.83
2018-12-31T19:59:11.698Z,63.10
2018-12-31T20:01:40.936Z,61.73
2018-12-31T20:04:10.240Z,57.77
2018-12-31T20:06:39.664Z,58.00
2018-12-31T20:09:09.366Z,68.33
2018-12-31T20:11:38.431Z,59.10
2018-12-31T20:14:07.870Z,63.30
2018-12-31T20:16:36.962Z,58.93
2018-12-31T20:19:06.332Z,53.87
2018-12-31T20:21:35.736Z,62.43
2018-12-31T20:24:04.998Z,56.77
2018-12-31T20:26:34.052Z,56.57
2018-12-31T20:29:03.652Z,55.00
2018-12-31T20:31:32.637Z,51.43
2018-12-31T20:34:02.043Z,58.37
2018-12-31T20:36:31.548Z,52.63
2018-12-31T20:39:00.649Z,60.10
2018-12-31T20:41:29.605Z,59.13
2018-12-31T20:44:00.318Z,57.30
2018-12-31T20:46:29.480Z,53.00
2018-12-31T20:48:58.737Z,55.57
2018-12-31T20:51:27.699Z,52.63
2018-12-31T20:53:57.483Z,51.63
2018-12-31T20:56:26.516Z,53.83
2018-12-31T20:58:55.915Z,52.63
2018-12-31T21:01:25.053Z,55.97
2018-12-31T21:03:54.024Z,56.20
2018-12-31T21:06:23.307Z,51.07
2018-12-31T21:08:52.571Z,46.73
2018-12-31T21:11:21.484Z,57.30
2018-12-31T21:13:50.637Z,50.30
2018-12-31T21:16:19.662Z,44.00
2018-12-31T21:18:49.094Z,48.23
2018-12-31T21:21:18.293Z,49.00
2018-12-31T21:23:47.398Z,43.73
2018-12-31T21:26:16.500Z,43.63
2018-12-31T21:28:46.000Z,41.37
2018-12-31T21:31:15.057Z,38.43
2018-12-31T21:33:44.505Z,41.03
2018-12-31T21:36:13.562Z,44.60
2018-12-31T21:38:42.527Z,33.63
2018-12-31T21:41:11.472Z,38.97
2018-12-31T21:43:41.012Z,43.97
2018-12-31T21:46:10.495Z,45.20
2018-12-31T21:48:39.876Z,47.47
2018-12-31T21:51:08.839Z,42.70
2018-12-31T21:53:38.758Z,40.07
2018-12-31T21:56:08.386Z,39.17
2018-12-31T21:58:37.797Z,39.03
2018-12-31T22:01:06.845Z,45.10
2018-12-31T22:03:35.896Z,38.67
2018-12-31T22:06:05.308Z,43.73
2018-12-31T22:08:34.265Z,48.43
2018-12-31T22:11:03.238Z,49.83
2018-12-31T22:13:32.135Z,55.10
2018-12-31T22:16:01.122Z,45.37
2018-12-31T22:18:30.794Z,41.50
2018-12-31T22:20:59.807Z,45.57
2018-12-31T22:23:28.703Z,44.60
2018-12-31T22:25:57.704Z,43.47
2018-12-31T22:28:27.248Z,42.07
2018-12-31T22:30:56.986Z,44.33
2018-12-31T22:33:25.986Z,44.87
2018-12-31T22:35:55.254Z,45.30
2018-12-31T22:38:24.254Z,41.57
2018-12-31T22:40:53.713Z,48.63
2018-12-31T22:43:22.664Z,47.00
2018-12-31T22:45:52.076Z,48.20
2018-12-31T22:48:21.383Z,49.53
2018-12-31T22:50:50.414Z,47.83
2018-12-31T22:53:19.509Z,57.57
2018-12-31T22:55:48.764Z,48.67
2018-12-31T22:58:17.941Z,56.73
2018-12-31T23:00:48.747Z,78.23
2018-12-31T23:03:17.738Z,1999.90
2018-12-31T23:05:46.899Z,1019.47
2018-12-31T23:08:16.747Z,1999.90
2018-12-31T23:10:45.749Z,1906.50
2018-12-31T23:13:14.737Z,1901.73
2018-12-31T23:15:44.792Z,1999.90
2018-12-31T23:18:13.845Z,1316.67
2018-12-31T23:20:43.493Z,790.13
2018-12-31T23:23:12.868Z,686.83
2018-12-31T23:25:42.288Z,1672.23
2018-12-31T23:28:11.607Z,676.80
2018-12-31T23:30:41.022Z,254.03
2018-12-31T23:33:10.482Z,212.50
2018-12-31T23:35:39.629Z,296.83
2018-12-31T23:38:08.535Z,230.23
2018-12-31T23:40:37.509Z,165.87
2018-12-31T23:43:06.879Z,347.13
2018-12-31T23:45:36.350Z,1101.00
2018-12-31T23:48:05.868Z,258.43
2018-12-31T23:50:35.165Z,173.20
2018-12-31T23:53:04.200Z,173.30
2018-12-31T23:55:33.464Z,253.47
2018-12-31T23:58:03.396Z,166.63
